sensor_id;sensor_type;location;lat;lon;timestamp;P1;durP1;ratioP1;P2;durP2;ratioP2
5349;SDS011;2697;42.144;24.794;2023-11-21T00:00:24;10.83;;;3.87;;
5349;SDS011;2697;42.144;24.794;2023-11-21T00:02:50;6.00;;;3.20;;
5349;SDS011;2697;42.144;24.794;2023-11-21T00:05:15;12.63;;;4.77;;
5349;SDS011;2697;42.144;24.794;2023-11-21T00:07:41;11.20;;;3.80;;
5349;SDS011;2697;42.144;24.794;2023-11-21T00:10:07;6.47;;;3.30;;
5349;SDS011;2697;42.144;24.794;2023-11-21T00:12:35;7.10;;;3.47;;
5349;SDS011;2697;42.144;24.794;2023-11-21T00:15:01;10.47;;;3.50;;
5349;SDS011;2697;42.144;24.794;2023-11-21T00:17:26;8.53;;;3.10;;
5349;SDS011;2697;42.144;24.794;2023-11-21T00:19:52;6.67;;;3.27;;
5349;SDS011;2697;42.144;24.794;2023-11-21T00:22:18;9.60;;;3.57;;
5349;SDS011;2697;42.144;24.794;2023-11-21T00:24:43;10.00;;;3.10;;
5349;SDS011;2697;42.144;24.794;2023-11-21T00:27:09;7.27;;;3.00;;
5349;SDS011;2697;42.144;24.794;2023-11-21T00:29:35;16.50;;;3.30;;
5349;SDS011;2697;42.144;24.794;2023-11-21T00:32:00;10.93;;;5.10;;
5349;SDS011;2697;42.144;24.794;2023-11-21T00:34:25;5.07;;;3.47;;
5349;SDS011;2697;42.144;24.794;2023-11-21T00:36:51;3.00;;;2.27;;
5349;SDS011;2697;42.144;24.794;2023-11-21T00:39:16;10.80;;;3.33;;
5349;SDS011;2697;42.144;24.794;2023-11-21T00:41:42;5.13;;;2.90;;
5349;SDS011;2697;42.144;24.794;2023-11-21T00:44:07;10.10;;;4.30;;
5349;SDS011;2697;42.144;24.794;2023-11-21T00:46:33;13.03;;;3.83;;
5349;SDS011;2697;42.144;24.794;2023-11-21T00:48:58;7.40;;;3.07;;
5349;SDS011;2697;42.144;24.794;2023-11-21T00:51:24;6.07;;;3.20;;
5349;SDS011;2697;42.144;24.794;2023-11-21T00:53:49;11.43;;;3.20;;
5349;SDS011;2697;42.144;24.794;2023-11-21T00:56:15;6.10;;;3.83;;
5349;SDS011;2697;42.144;24.794;2023-11-21T00:58:40;8.60;;;3.93;;
5349;SDS011;2697;42.144;24.794;2023-11-21T01:01:11;10.37;;;4.27;;
5349;SDS011;2697;42.144;24.794;2023-11-21T01:03:37;7.57;;;4.47;;
5349;SDS011;2697;42.144;24.794;2023-11-21T01:06:02;7.67;;;3.27;;
5349;SDS011;2697;42.144;24.794;2023-11-21T01:08:28;8.70;;;4.33;;
5349;SDS011;2697;42.144;24.794;2023-11-21T01:10:53;10.60;;;4.30;;
5349;SDS011;2697;42.144;24.794;2023-11-21T01:13:19;10.50;;;3.67;;
5349;SDS011;2697;42.144;24.794;2023-11-21T01:15:46;8.20;;;4.20;;
5349;SDS011;2697;42.144;24.794;2023-11-21T01:18:11;5.43;;;3.60;;
5349;SDS011;2697;42.144;24.794;2023-11-21T01:20:37;13.63;;;4.17;;
5349;SDS011;2697;42.144;24.794;2023-11-21T01:23:02;8.87;;;4.00;;
5349;SDS011;2697;42.144;24.794;2023-11-21T01:25:27;13.43;;;5.50;;
5349;SDS011;2697;42.144;24.794;2023-11-21T01:27:53;11.00;;;5.30;;
5349;SDS011;2697;42.144;24.794;2023-11-21T01:30:18;9.70;;;4.80;;
5349;SDS011;2697;42.144;24.794;2023-11-21T01:32:44;14.37;;;4.73;;
5349;SDS011;2697;42.144;24.794;2023-11-21T01:35:09;9.10;;;4.30;;
5349;SDS011;2697;42.144;24.794;2023-11-21T01:37:35;7.27;;;3.70;;
5349;SDS011;2697;42.144;24.794;2023-11-21T01:40:04;12.07;;;4.70;;
5349;SDS011;2697;42.144;24.794;2023-11-21T01:42:34;14.57;;;5.60;;
5349;SDS011;2697;42.144;24.794;2023-11-21T01:44:59;12.57;;;5.10;;
5349;SDS011;2697;42.144;24.794;2023-11-21T01:47:30;10.43;;;4.40;;
5349;SDS011;2697;42.144;24.794;2023-11-21T01:49:59;12.73;;;4.97;;
5349;SDS011;2697;42.144;24.794;2023-11-21T01:52:24;10.40;;;4.70;;
5349;SDS011;2697;42.144;24.794;2023-11-21T01:54:51;17.90;;;5.77;;
5349;SDS011;2697;42.144;24.794;2023-11-21T01:57:18;10.27;;;5.70;;
5349;SDS011;2697;42.144;24.794;2023-11-21T01:59:45;20.10;;;6.70;;
5349;SDS011;2697;42.144;24.794;2023-11-21T02:02:15;14.57;;;6.67;;
5349;SDS011;2697;42.144;24.794;2023-11-21T02:04:41;15.23;;;6.60;;
5349;SDS011;2697;42.144;24.794;2023-11-21T02:07:07;23.07;;;6.67;;
5349;SDS011;2697;42.144;24.794;2023-11-21T02:09:32;22.60;;;7.07;;
5349;SDS011;2697;42.144;24.794;2023-11-21T02:11:59;22.33;;;8.17;;
5349;SDS011;2697;42.144;24.794;2023-11-21T02:14:25;15.23;;;7.03;;
5349;SDS011;2697;42.144;24.794;2023-11-21T02:16:53;23.63;;;8.27;;
5349;SDS011;2697;42.144;24.794;2023-11-21T02:19:19;15.33;;;6.40;;
5349;SDS011;2697;42.144;24.794;2023-11-21T02:21:49;14.23;;;6.63;;
5349;SDS011;2697;42.144;24.794;2023-11-21T02:24:14;11.33;;;6.47;;
5349;SDS011;2697;42.144;24.794;2023-11-21T02:26:40;19.50;;;7.43;;
5349;SDS011;2697;42.144;24.794;2023-11-21T02:29:06;19.03;;;7.00;;
5349;SDS011;2697;42.144;24.794;2023-11-21T02:31:35;16.30;;;7.20;;
5349;SDS011;2697;42.144;24.794;2023-11-21T02:34:02;18.87;;;5.83;;
5349;SDS011;2697;42.144;24.794;2023-11-21T02:36:28;19.73;;;7.87;;
5349;SDS011;2697;42.144;24.794;2023-11-21T02:38:53;15.27;;;6.87;;
5349;SDS011;2697;42.144;24.794;2023-11-21T02:41:19;22.10;;;8.27;;
5349;SDS011;2697;42.144;24.794;2023-11-21T02:43:44;14.23;;;6.70;;
5349;SDS011;2697;42.144;24.794;2023-11-21T02:46:09;13.83;;;6.87;;
5349;SDS011;2697;42.144;24.794;2023-11-21T02:48:35;15.20;;;7.60;;
5349;SDS011;2697;42.144;24.794;2023-11-21T02:51:01;15.30;;;7.40;;
5349;SDS011;2697;42.144;24.794;2023-11-21T02:53:26;17.67;;;8.30;;
5349;SDS011;2697;42.144;24.794;2023-11-21T02:55:51;23.33;;;8.10;;
5349;SDS011;2697;42.144;24.794;2023-11-21T02:58:17;24.87;;;6.93;;
5349;SDS011;2697;42.144;24.794;2023-11-21T03:00:42;18.43;;;6.00;;
5349;SDS011;2697;42.144;24.794;2023-11-21T03:03:08;16.60;;;6.63;;
5349;SDS011;2697;42.144;24.794;2023-11-21T03:05:33;16.10;;;6.00;;
5349;SDS011;2697;42.144;24.794;2023-11-21T03:08:00;8.47;;;4.83;;
5349;SDS011;2697;42.144;24.794;2023-11-21T03:10:26;15.93;;;5.90;;
5349;SDS011;2697;42.144;24.794;2023-11-21T03:12:52;8.77;;;5.00;;
5349;SDS011;2697;42.144;24.794;2023-11-21T03:15:17;10.20;;;4.60;;
5349;SDS011;2697;42.144;24.794;2023-11-21T03:17:43;4.93;;;3.30;;
5349;SDS011;2697;42.144;24.794;2023-11-21T03:20:09;7.50;;;3.20;;
5349;SDS011;2697;42.144;24.794;2023-11-21T03:22:36;7.57;;;3.67;;
5349;SDS011;2697;42.144;24.794;2023-11-21T03:25:02;7.70;;;4.43;;
5349;SDS011;2697;42.144;24.794;2023-11-21T03:27:28;20.33;;;6.83;;
5349;SDS011;2697;42.144;24.794;2023-11-21T03:29:53;8.23;;;4.90;;
5349;SDS011;2697;42.144;24.794;2023-11-21T03:32:19;10.00;;;5.20;;
5349;SDS011;2697;42.144;24.794;2023-11-21T03:34:54;10.70;;;4.63;;
5349;SDS011;2697;42.144;24.794;2023-11-21T03:37:21;31.40;;;5.80;;
5349;SDS011;2697;42.144;24.794;2023-11-21T03:39:46;18.67;;;6.67;;
5349;SDS011;2697;42.144;24.794;2023-11-21T03:42:12;14.00;;;4.20;;
5349;SDS011;2697;42.144;24.794;2023-11-21T03:44:37;9.27;;;4.60;;
5349;SDS011;2697;42.144;24.794;2023-11-21T03:47:03;7.97;;;3.93;;
5349;SDS011;2697;42.144;24.794;2023-11-21T03:49:28;10.40;;;4.90;;
5349;SDS011;2697;42.144;24.794;2023-11-21T03:51:54;22.33;;;6.50;;
5349;SDS011;2697;42.144;24.794;2023-11-21T03:54:20;16.27;;;6.60;;
5349;SDS011;2697;42.144;24.794;2023-11-21T03:56:46;11.87;;;4.83;;
5349;SDS011;2697;42.144;24.794;2023-11-21T03:59:11;14.30;;;5.37;;
5349;SDS011;2697;42.144;24.794;2023-11-21T04:01:37;11.67;;;6.23;;
5349;SDS011;2697;42.144;24.794;2023-11-21T04:04:02;8.50;;;4.50;;
5349;SDS011;2697;42.144;24.794;2023-11-21T04:06:29;9.53;;;4.80;;
5349;SDS011;2697;42.144;24.794;2023-11-21T04:08:54;19.83;;;5.60;;
5349;SDS011;2697;42.144;24.794;2023-11-21T04:11:20;11.17;;;6.20;;
5349;SDS011;2697;42.144;24.794;2023-11-21T04:13:45;12.37;;;5.63;;
5349;SDS011;2697;42.144;24.794;2023-11-21T04:16:11;10.87;;;5.17;;
5349;SDS011;2697;42.144;24.794;2023-11-21T04:18:37;31.83;;;6.30;;
5349;SDS011;2697;42.144;24.794;2023-11-21T04:21:06;12.90;;;5.80;;
5349;SDS011;2697;42.144;24.794;2023-11-21T04:23:33;15.30;;;5.13;;
5349;SDS011;2697;42.144;24.794;2023-11-21T04:25:58;22.33;;;6.33;;
5349;SDS011;2697;42.144;24.794;2023-11-21T04:28:24;14.10;;;6.23;;
5349;SDS011;2697;42.144;24.794;2023-11-21T04:30:50;12.20;;;4.60;;
5349;SDS011;2697;42.144;24.794;2023-11-21T04:33:15;8.83;;;4.83;;
5349;SDS011;2697;42.144;24.794;2023-11-21T04:35:41;14.13;;;5.63;;
5349;SDS011;2697;42.144;24.794;2023-11-21T04:38:07;9.53;;;5.77;;
5349;SDS011;2697;42.144;24.794;2023-11-21T04:40:32;13.83;;;6.03;;
5349;SDS011;2697;42.144;24.794;2023-11-21T04:42:58;17.07;;;6.33;;
5349;SDS011;2697;42.144;24.794;2023-11-21T04:45:23;31.83;;;6.70;;
5349;SDS011;2697;42.144;24.794;2023-11-21T04:47:49;30.77;;;10.03;;
5349;SDS011;2697;42.144;24.794;2023-11-21T04:50:14;15.37;;;7.07;;
5349;SDS011;2697;42.144;24.794;2023-11-21T04:52:39;41.53;;;15.53;;
5349;SDS011;2697;42.144;24.794;2023-11-21T04:55:05;52.77;;;14.63;;
5349;SDS011;2697;42.144;24.794;2023-11-21T04:57:34;22.13;;;10.50;;
5349;SDS011;2697;42.144;24.794;2023-11-21T05:00:00;55.07;;;16.63;;
5349;SDS011;2697;42.144;24.794;2023-11-21T05:02:26;47.87;;;18.50;;
5349;SDS011;2697;42.144;24.794;2023-11-21T05:04:51;65.60;;;25.60;;
5349;SDS011;2697;42.144;24.794;2023-11-21T05:07:16;72.23;;;27.20;;
5349;SDS011;2697;42.144;24.794;2023-11-21T05:09:42;65.60;;;23.10;;
5349;SDS011;2697;42.144;24.794;2023-11-21T05:12:09;60.13;;;24.17;;
5349;SDS011;2697;42.144;24.794;2023-11-21T05:14:36;50.80;;;19.77;;
5349;SDS011;2697;42.144;24.794;2023-11-21T05:17:01;51.57;;;22.60;;
5349;SDS011;2697;42.144;24.794;2023-11-21T05:19:27;66.70;;;23.70;;
5349;SDS011;2697;42.144;24.794;2023-11-21T05:21:52;55.23;;;22.23;;
5349;SDS011;2697;42.144;24.794;2023-11-21T05:24:17;34.37;;;14.40;;
5349;SDS011;2697;42.144;24.794;2023-11-21T05:26:43;36.73;;;16.50;;
5349;SDS011;2697;42.144;24.794;2023-11-21T05:29:08;39.90;;;14.33;;
5349;SDS011;2697;42.144;24.794;2023-11-21T05:31:35;37.17;;;13.63;;
5349;SDS011;2697;42.144;24.794;2023-11-21T05:34:01;26.87;;;9.87;;
5349;SDS011;2697;42.144;24.794;2023-11-21T05:36:26;42.40;;;10.00;;
5349;SDS011;2697;42.144;24.794;2023-11-21T05:38:52;29.70;;;11.60;;
5349;SDS011;2697;42.144;24.794;2023-11-21T05:41:17;36.47;;;10.23;;
5349;SDS011;2697;42.144;24.794;2023-11-21T05:43:43;37.50;;;10.37;;
5349;SDS011;2697;42.144;24.794;2023-11-21T05:46:08;31.80;;;11.40;;
5349;SDS011;2697;42.144;24.794;2023-11-21T05:48:34;38.30;;;9.57;;
5349;SDS011;2697;42.144;24.794;2023-11-21T05:51:02;32.03;;;10.73;;
5349;SDS011;2697;42.144;24.794;2023-11-21T05:53:29;49.13;;;16.90;;
5349;SDS011;2697;42.144;24.794;2023-11-21T05:55:55;45.10;;;18.10;;
5349;SDS011;2697;42.144;24.794;2023-11-21T05:58:20;35.50;;;13.50;;
5349;SDS011;2697;42.144;24.794;2023-11-21T06:00:46;37.67;;;13.40;;
5349;SDS011;2697;42.144;24.794;2023-11-21T06:03:11;31.73;;;13.60;;
5349;SDS011;2697;42.144;24.794;2023-11-21T06:05:37;40.03;;;13.13;;
5349;SDS011;2697;42.144;24.794;2023-11-21T06:08:02;35.90;;;11.53;;
5349;SDS011;2697;42.144;24.794;2023-11-21T06:10:28;32.50;;;10.37;;
5349;SDS011;2697;42.144;24.794;2023-11-21T06:12:53;40.73;;;13.30;;
5349;SDS011;2697;42.144;24.794;2023-11-21T06:15:19;51.37;;;16.50;;
5349;SDS011;2697;42.144;24.794;2023-11-21T06:17:46;34.40;;;11.47;;
5349;SDS011;2697;42.144;24.794;2023-11-21T06:20:14;66.73;;;11.10;;
5349;SDS011;2697;42.144;24.794;2023-11-21T06:22:43;30.03;;;12.00;;
5349;SDS011;2697;42.144;24.794;2023-11-21T06:25:10;25.50;;;12.77;;
5349;SDS011;2697;42.144;24.794;2023-11-21T06:27:38;40.43;;;13.40;;
5349;SDS011;2697;42.144;24.794;2023-11-21T06:30:05;33.53;;;13.13;;
5349;SDS011;2697;42.144;24.794;2023-11-21T06:32:31;52.33;;;13.90;;
5349;SDS011;2697;42.144;24.794;2023-11-21T06:34:57;32.43;;;12.87;;
5349;SDS011;2697;42.144;24.794;2023-11-21T06:37:28;35.13;;;13.93;;
5349;SDS011;2697;42.144;24.794;2023-11-21T06:39:54;35.00;;;16.40;;
5349;SDS011;2697;42.144;24.794;2023-11-21T06:42:19;43.23;;;14.10;;
5349;SDS011;2697;42.144;24.794;2023-11-21T06:44:45;63.07;;;14.03;;
5349;SDS011;2697;42.144;24.794;2023-11-21T06:47:11;37.53;;;12.50;;
5349;SDS011;2697;42.144;24.794;2023-11-21T06:49:37;40.07;;;10.63;;
5349;SDS011;2697;42.144;24.794;2023-11-21T06:52:03;40.63;;;11.70;;
5349;SDS011;2697;42.144;24.794;2023-11-21T06:54:30;30.37;;;13.23;;
5349;SDS011;2697;42.144;24.794;2023-11-21T06:56:57;24.17;;;12.07;;
5349;SDS011;2697;42.144;24.794;2023-11-21T06:59:23;34.43;;;10.50;;
5349;SDS011;2697;42.144;24.794;2023-11-21T07:01:49;27.10;;;10.30;;
5349;SDS011;2697;42.144;24.794;2023-11-21T07:04:14;22.20;;;8.07;;
5349;SDS011;2697;42.144;24.794;2023-11-21T07:06:40;11.73;;;5.63;;
5349;SDS011;2697;42.144;24.794;2023-11-21T07:09:05;14.57;;;6.17;;
5349;SDS011;2697;42.144;24.794;2023-11-21T07:11:33;16.33;;;7.10;;
5349;SDS011;2697;42.144;24.794;2023-11-21T07:13:59;11.20;;;5.57;;
5349;SDS011;2697;42.144;24.794;2023-11-21T07:16:27;34.53;;;11.03;;
5349;SDS011;2697;42.144;24.794;2023-11-21T07:18:53;25.67;;;13.37;;
5349;SDS011;2697;42.144;24.794;2023-11-21T07:21:19;39.87;;;13.40;;
5349;SDS011;2697;42.144;24.794;2023-11-21T07:23:45;44.07;;;15.30;;
5349;SDS011;2697;42.144;24.794;2023-11-21T07:26:11;49.33;;;14.27;;
5349;SDS011;2697;42.144;24.794;2023-11-21T07:28:37;30.23;;;11.00;;
5349;SDS011;2697;42.144;24.794;2023-11-21T07:31:02;50.63;;;10.80;;
5349;SDS011;2697;42.144;24.794;2023-11-21T07:33:28;21.40;;;10.30;;
5349;SDS011;2697;42.144;24.794;2023-11-21T07:35:53;40.67;;;12.13;;
5349;SDS011;2697;42.144;24.794;2023-11-21T07:38:19;24.40;;;9.60;;
5349;SDS011;2697;42.144;24.794;2023-11-21T07:40:44;33.03;;;10.60;;
5349;SDS011;2697;42.144;24.794;2023-11-21T07:43:09;21.93;;;9.67;;
5349;SDS011;2697;42.144;24.794;2023-11-21T07:45:35;31.63;;;10.30;;
5349;SDS011;2697;42.144;24.794;2023-11-21T07:48:01;50.63;;;11.43;;
5349;SDS011;2697;42.144;24.794;2023-11-21T07:50:28;23.00;;;10.70;;
5349;SDS011;2697;42.144;24.794;2023-11-21T07:52:54;30.40;;;10.17;;
5349;SDS011;2697;42.144;24.794;2023-11-21T07:55:19;33.80;;;10.93;;
5349;SDS011;2697;42.144;24.794;2023-11-21T07:57:45;25.07;;;10.53;;
5349;SDS011;2697;42.144;24.794;2023-11-21T08:00:10;22.50;;;10.13;;
5349;SDS011;2697;42.144;24.794;2023-11-21T08:02:37;32.60;;;10.93;;
5349;SDS011;2697;42.144;24.794;2023-11-21T08:05:04;26.70;;;9.60;;
5349;SDS011;2697;42.144;24.794;2023-11-21T08:07:32;23.73;;;9.10;;
5349;SDS011;2697;42.144;24.794;2023-11-21T08:09:57;27.70;;;9.60;;
5349;SDS011;2697;42.144;24.794;2023-11-21T08:12:23;30.37;;;9.40;;
5349;SDS011;2697;42.144;24.794;2023-11-21T08:14:49;33.90;;;9.90;;
5349;SDS011;2697;42.144;24.794;2023-11-21T08:17:14;20.77;;;9.90;;
5349;SDS011;2697;42.144;24.794;2023-11-21T08:19:39;26.73;;;9.83;;
5349;SDS011;2697;42.144;24.794;2023-11-21T08:22:05;28.97;;;9.53;;
5349;SDS011;2697;42.144;24.794;2023-11-21T08:24:33;40.87;;;10.37;;
5349;SDS011;2697;42.144;24.794;2023-11-21T08:26:58;42.03;;;9.10;;
5349;SDS011;2697;42.144;24.794;2023-11-21T08:29:24;40.43;;;8.80;;
5349;SDS011;2697;42.144;24.794;2023-11-21T08:31:49;27.70;;;10.30;;
5349;SDS011;2697;42.144;24.794;2023-11-21T08:34:14;36.80;;;9.60;;
5349;SDS011;2697;42.144;24.794;2023-11-21T08:36:43;32.17;;;12.83;;
5349;SDS011;2697;42.144;24.794;2023-11-21T08:39:09;30.70;;;10.43;;
5349;SDS011;2697;42.144;24.794;2023-11-21T08:41:35;25.10;;;9.20;;
5349;SDS011;2697;42.144;24.794;2023-11-21T08:44:01;19.00;;;9.80;;
5349;SDS011;2697;42.144;24.794;2023-11-21T08:46:27;29.00;;;8.07;;
5349;SDS011;2697;42.144;24.794;2023-11-21T08:48:53;20.03;;;8.10;;
5349;SDS011;2697;42.144;24.794;2023-11-21T08:51:18;21.47;;;8.33;;
5349;SDS011;2697;42.144;24.794;2023-11-21T08:53:43;30.40;;;9.20;;
5349;SDS011;2697;42.144;24.794;2023-11-21T08:56:12;22.33;;;7.67;;
5349;SDS011;2697;42.144;24.794;2023-11-21T08:58:39;19.73;;;6.37;;
5349;SDS011;2697;42.144;24.794;2023-11-21T09:01:05;17.80;;;7.47;;
5349;SDS011;2697;42.144;24.794;2023-11-21T09:03:32;27.50;;;7.03;;
5349;SDS011;2697;42.144;24.794;2023-11-21T09:05:59;21.40;;;6.73;;
5349;SDS011;2697;42.144;24.794;2023-11-21T09:08:24;26.33;;;5.57;;
5349;SDS011;2697;42.144;24.794;2023-11-21T09:10:50;19.93;;;6.37;;
5349;SDS011;2697;42.144;24.794;2023-11-21T09:13:15;9.70;;;5.40;;
5349;SDS011;2697;42.144;24.794;2023-11-21T09:15:43;13.80;;;5.60;;
5349;SDS011;2697;42.144;24.794;2023-11-21T09:18:11;25.43;;;6.50;;
5349;SDS011;2697;42.144;24.794;2023-11-21T09:20:38;13.70;;;5.43;;
5349;SDS011;2697;42.144;24.794;2023-11-21T09:23:04;7.93;;;4.77;;
5349;SDS011;2697;42.144;24.794;2023-11-21T09:25:29;7.23;;;5.03;;
5349;SDS011;2697;42.144;24.794;2023-11-21T09:27:54;17.80;;;6.03;;
5349;SDS011;2697;42.144;24.794;2023-11-21T09:30:21;15.70;;;5.40;;
5349;SDS011;2697;42.144;24.794;2023-11-21T09:32:46;22.23;;;6.67;;
5349;SDS011;2697;42.144;24.794;2023-11-21T09:35:12;10.30;;;5.50;;
5349;SDS011;2697;42.144;24.794;2023-11-21T09:37:39;24.93;;;9.03;;
5349;SDS011;2697;42.144;24.794;2023-11-21T09:40:04;10.10;;;6.43;;
5349;SDS011;2697;42.144;24.794;2023-11-21T09:42:41;21.80;;;7.10;;
5349;SDS011;2697;42.144;24.794;2023-11-21T09:47:43;13.57;;;6.90;;
5349;SDS011;2697;42.144;24.794;2023-11-21T09:50:09;15.30;;;7.20;;
5349;SDS011;2697;42.144;24.794;2023-11-21T09:53:21;13.93;;;7.33;;
5349;SDS011;2697;42.144;24.794;2023-11-21T09:55:44;13.40;;;6.33;;
5349;SDS011;2697;42.144;24.794;2023-11-21T09:58:11;17.13;;;6.67;;
5349;SDS011;2697;42.144;24.794;2023-11-21T10:00:48;9.60;;;5.63;;
5349;SDS011;2697;42.144;24.794;2023-11-21T10:03:14;18.13;;;7.03;;
5349;SDS011;2697;42.144;24.794;2023-11-21T10:05:42;18.23;;;6.73;;
5349;SDS011;2697;42.144;24.794;2023-11-21T10:08:11;20.80;;;7.70;;
5349;SDS011;2697;42.144;24.794;2023-11-21T10:10:38;27.10;;;7.23;;
5349;SDS011;2697;42.144;24.794;2023-11-21T10:13:07;16.70;;;7.63;;
5349;SDS011;2697;42.144;24.794;2023-11-21T10:15:36;27.00;;;7.27;;
5349;SDS011;2697;42.144;24.794;2023-11-21T10:18:04;16.90;;;7.57;;
5349;SDS011;2697;42.144;24.794;2023-11-21T10:20:33;21.10;;;7.63;;
5349;SDS011;2697;42.144;24.794;2023-11-21T10:22:59;17.87;;;7.70;;
5349;SDS011;2697;42.144;24.794;2023-11-21T10:25:28;26.70;;;5.83;;
5349;SDS011;2697;42.144;24.794;2023-11-21T10:27:58;18.03;;;6.20;;
5349;SDS011;2697;42.144;24.794;2023-11-21T10:30:36;25.60;;;7.33;;
5349;SDS011;2697;42.144;24.794;2023-11-21T10:33:03;17.33;;;7.80;;
5349;SDS011;2697;42.144;24.794;2023-11-21T10:35:48;33.20;;;6.77;;
5349;SDS011;2697;42.144;24.794;2023-11-21T10:38:15;21.63;;;7.87;;
5349;SDS011;2697;42.144;24.794;2023-11-21T10:40:41;25.20;;;7.00;;
5349;SDS011;2697;42.144;24.794;2023-11-21T10:43:09;24.77;;;7.43;;
5349;SDS011;2697;42.144;24.794;2023-11-21T10:45:36;19.67;;;7.40;;
5349;SDS011;2697;42.144;24.794;2023-11-21T10:48:08;18.93;;;6.27;;
5349;SDS011;2697;42.144;24.794;2023-11-21T10:50:37;20.47;;;7.27;;
5349;SDS011;2697;42.144;24.794;2023-11-21T10:53:03;26.47;;;7.63;;
5349;SDS011;2697;42.144;24.794;2023-11-21T10:55:29;19.50;;;6.60;;
5349;SDS011;2697;42.144;24.794;2023-11-21T10:57:57;19.37;;;7.00;;
5349;SDS011;2697;42.144;24.794;2023-11-21T11:00:24;12.63;;;5.73;;
5349;SDS011;2697;42.144;24.794;2023-11-21T11:02:52;13.17;;;6.40;;
5349;SDS011;2697;42.144;24.794;2023-11-21T11:05:21;9.33;;;4.47;;
5349;SDS011;2697;42.144;24.794;2023-11-21T11:08:08;15.73;;;5.13;;
5349;SDS011;2697;42.144;24.794;2023-11-21T11:10:37;10.57;;;4.77;;
5349;SDS011;2697;42.144;24.794;2023-11-21T11:13:02;19.93;;;5.17;;
5349;SDS011;2697;42.144;24.794;2023-11-21T11:15:29;9.07;;;4.93;;
5349;SDS011;2697;42.144;24.794;2023-11-21T11:17:54;18.50;;;4.50;;
5349;SDS011;2697;42.144;24.794;2023-11-21T11:20:23;9.67;;;4.50;;
5349;SDS011;2697;42.144;24.794;2023-11-21T11:26:11;7.40;;;4.40;;
5349;SDS011;2697;42.144;24.794;2023-11-21T11:32:00;10.43;;;3.00;;
5349;SDS011;2697;42.144;24.794;2023-11-21T11:35:01;7.20;;;3.73;;
5349;SDS011;2697;42.144;24.794;2023-11-21T11:37:32;13.00;;;3.90;;
5349;SDS011;2697;42.144;24.794;2023-11-21T11:39:58;6.20;;;3.17;;
5349;SDS011;2697;42.144;24.794;2023-11-21T11:42:25;4.70;;;2.50;;
5349;SDS011;2697;42.144;24.794;2023-11-21T11:44:52;5.97;;;3.10;;
5349;SDS011;2697;42.144;24.794;2023-11-21T11:47:29;4.43;;;2.60;;
5349;SDS011;2697;42.144;24.794;2023-11-21T11:49:59;17.43;;;3.00;;
5349;SDS011;2697;42.144;24.794;2023-11-21T11:55:06;9.50;;;3.87;;
5349;SDS011;2697;42.144;24.794;2023-11-21T11:57:35;15.83;;;4.20;;
5349;SDS011;2697;42.144;24.794;2023-11-21T12:02:58;9.23;;;5.13;;
5349;SDS011;2697;42.144;24.794;2023-11-21T12:05:27;15.27;;;6.87;;
5349;SDS011;2697;42.144;24.794;2023-11-21T12:07:54;13.30;;;7.10;;
5349;SDS011;2697;42.144;24.794;2023-11-21T12:10:25;13.47;;;5.90;;
5349;SDS011;2697;42.144;24.794;2023-11-21T12:13:02;12.00;;;5.70;;
5349;SDS011;2697;42.144;24.794;2023-11-21T12:15:35;19.23;;;6.50;;
5349;SDS011;2697;42.144;24.794;2023-11-21T12:18:01;19.53;;;6.80;;
5349;SDS011;2697;42.144;24.794;2023-11-21T12:20:27;12.00;;;7.40;;
5349;SDS011;2697;42.144;24.794;2023-11-21T12:22:54;14.33;;;6.53;;
5349;SDS011;2697;42.144;24.794;2023-11-21T12:25:28;12.77;;;5.73;;
5349;SDS011;2697;42.144;24.794;2023-11-21T12:27:55;12.90;;;6.10;;
5349;SDS011;2697;42.144;24.794;2023-11-21T12:30:22;10.33;;;5.30;;
5349;SDS011;2697;42.144;24.794;2023-11-21T12:32:49;6.43;;;3.80;;
5349;SDS011;2697;42.144;24.794;2023-11-21T12:35:16;5.63;;;3.80;;
5349;SDS011;2697;42.144;24.794;2023-11-21T12:37:46;11.33;;;4.20;;
5349;SDS011;2697;42.144;24.794;2023-11-21T12:40:14;5.00;;;3.00;;
5349;SDS011;2697;42.144;24.794;2023-11-21T12:42:41;5.30;;;3.10;;
5349;SDS011;2697;42.144;24.794;2023-11-21T12:47:36;7.90;;;4.00;;
5349;SDS011;2697;42.144;24.794;2023-11-21T12:50:02;5.20;;;3.60;;
5349;SDS011;2697;42.144;24.794;2023-11-21T12:52:30;8.13;;;5.13;;
5349;SDS011;2697;42.144;24.794;2023-11-21T12:54:56;10.60;;;4.80;;
5349;SDS011;2697;42.144;24.794;2023-11-21T12:57:25;9.47;;;4.40;;
5349;SDS011;2697;42.144;24.794;2023-11-21T12:59:56;13.73;;;6.13;;
5349;SDS011;2697;42.144;24.794;2023-11-21T13:02:22;13.33;;;5.07;;
5349;SDS011;2697;42.144;24.794;2023-11-21T13:04:53;11.37;;;6.00;;
5349;SDS011;2697;42.144;24.794;2023-11-21T13:07:19;14.77;;;4.20;;
5349;SDS011;2697;42.144;24.794;2023-11-21T13:09:45;11.70;;;4.63;;
5349;SDS011;2697;42.144;24.794;2023-11-21T13:12:10;10.00;;;4.40;;
5349;SDS011;2697;42.144;24.794;2023-11-21T13:14:37;12.93;;;4.00;;
5349;SDS011;2697;42.144;24.794;2023-11-21T13:17:05;6.93;;;3.50;;
5349;SDS011;2697;42.144;24.794;2023-11-21T13:19:30;8.07;;;4.17;;
5349;SDS011;2697;42.144;24.794;2023-11-21T13:21:56;11.27;;;4.83;;
5349;SDS011;2697;42.144;24.794;2023-11-21T13:24:21;7.40;;;4.07;;
5349;SDS011;2697;42.144;24.794;2023-11-21T13:26:46;10.10;;;4.50;;
5349;SDS011;2697;42.144;24.794;2023-11-21T13:29:12;10.60;;;5.27;;
5349;SDS011;2697;42.144;24.794;2023-11-21T13:31:38;7.53;;;3.93;;
5349;SDS011;2697;42.144;24.794;2023-11-21T13:34:04;10.60;;;4.40;;
5349;SDS011;2697;42.144;24.794;2023-11-21T13:36:30;12.17;;;5.60;;
5349;SDS011;2697;42.144;24.794;2023-11-21T13:38:58;21.97;;;7.20;;
5349;SDS011;2697;42.144;24.794;2023-11-21T13:41:24;10.73;;;5.57;;
5349;SDS011;2697;42.144;24.794;2023-11-21T13:43:55;16.33;;;5.20;;
5349;SDS011;2697;42.144;24.794;2023-11-21T13:46:31;11.20;;;5.10;;
5349;SDS011;2697;42.144;24.794;2023-11-21T13:49:02;14.27;;;5.37;;
5349;SDS011;2697;42.144;24.794;2023-11-21T13:51:27;10.50;;;4.70;;
5349;SDS011;2697;42.144;24.794;2023-11-21T13:54:02;12.80;;;4.30;;
5349;SDS011;2697;42.144;24.794;2023-11-21T13:56:33;14.87;;;5.43;;
5349;SDS011;2697;42.144;24.794;2023-11-21T13:58:59;32.97;;;7.97;;
5349;SDS011;2697;42.144;24.794;2023-11-21T14:01:31;21.53;;;5.77;;
5349;SDS011;2697;42.144;24.794;2023-11-21T14:03:57;20.53;;;7.20;;
5349;SDS011;2697;42.144;24.794;2023-11-21T14:06:48;29.07;;;8.13;;
5349;SDS011;2697;42.144;24.794;2023-11-21T14:09:16;25.63;;;9.43;;
5349;SDS011;2697;42.144;24.794;2023-11-21T14:11:48;15.30;;;7.43;;
5349;SDS011;2697;42.144;24.794;2023-11-21T14:14:18;24.37;;;9.00;;
5349;SDS011;2697;42.144;24.794;2023-11-21T14:16:49;27.27;;;9.40;;
5349;SDS011;2697;42.144;24.794;2023-11-21T14:19:14;25.87;;;8.80;;
5349;SDS011;2697;42.144;24.794;2023-11-21T14:21:43;26.93;;;8.77;;
5349;SDS011;2697;42.144;24.794;2023-11-21T14:24:09;23.40;;;9.23;;
5349;SDS011;2697;42.144;24.794;2023-11-21T14:26:35;22.07;;;8.47;;
5349;SDS011;2697;42.144;24.794;2023-11-21T14:29:00;20.40;;;7.73;;
5349;SDS011;2697;42.144;24.794;2023-11-21T14:31:26;20.57;;;8.10;;
5349;SDS011;2697;42.144;24.794;2023-11-21T14:33:54;28.03;;;9.10;;
5349;SDS011;2697;42.144;24.794;2023-11-21T14:36:19;17.83;;;7.83;;
5349;SDS011;2697;42.144;24.794;2023-11-21T14:38:45;23.97;;;8.57;;
5349;SDS011;2697;42.144;24.794;2023-11-21T14:41:10;27.70;;;8.37;;
5349;SDS011;2697;42.144;24.794;2023-11-21T14:43:36;25.07;;;7.83;;
5349;SDS011;2697;42.144;24.794;2023-11-21T14:46:03;16.17;;;7.83;;
5349;SDS011;2697;42.144;24.794;2023-11-21T14:48:31;19.10;;;8.30;;
5349;SDS011;2697;42.144;24.794;2023-11-21T14:51:12;19.20;;;7.60;;
5349;SDS011;2697;42.144;24.794;2023-11-21T14:53:38;32.87;;;6.50;;
5349;SDS011;2697;42.144;24.794;2023-11-21T14:56:09;25.13;;;7.27;;
5349;SDS011;2697;42.144;24.794;2023-11-21T14:58:35;17.93;;;8.47;;
5349;SDS011;2697;42.144;24.794;2023-11-21T15:01:02;17.87;;;8.57;;
5349;SDS011;2697;42.144;24.794;2023-11-21T15:03:29;25.10;;;9.23;;